createdAt,value
2018-04-24T00:00:06.672Z,64.33
2018-04-24T00:02:34.948Z,65.02
2018-04-24T00:05:05.870Z,64.56
2018-04-24T00:07:34.177Z,64.76
2018-04-24T00:10:06.000Z,65.54
2018-04-24T00:12:34.268Z,64.72
2018-04-24T00:15:05.729Z,65.75
2018-04-24T00:17:34.021Z,65.20
2018-04-24T00:20:09.301Z,65.33
2018-04-24T00:22:37.582Z,65.71
2018-04-24T00:25:05.858Z,64.90
2018-04-24T00:27:34.124Z,65.15
2018-04-24T00:30:07.562Z,65.70
2018-04-24T00:32:36.067Z,66.16
2018-04-24T00:35:06.412Z,65.43
2018-04-24T00:37:35.103Z,65.88
2018-04-24T00:40:06.749Z,65.58
2018-04-24T00:42:35.014Z,65.81
2018-04-24T00:45:05.976Z,65.95
2018-04-24T00:47:34.259Z,65.94
2018-04-24T00:50:05.823Z,66.87
2018-04-24T00:52:34.124Z,67.04
2018-04-24T00:55:06.113Z,67.98
2018-04-24T00:57:34.403Z,67.68
2018-04-24T01:00:05.752Z,67.64
2018-04-24T01:02:34.049Z,67.01
2018-04-24T01:05:07.283Z,66.82
2018-04-24T01:07:36.308Z,67.66
2018-04-24T01:10:05.978Z,67.20
2018-04-24T01:12:34.769Z,66.73
2018-04-24T01:15:06.561Z,67.27
2018-04-24T01:17:34.840Z,67.09
2018-04-24T01:20:05.778Z,67.61
2018-04-24T01:22:34.246Z,68.24
2018-04-24T01:25:05.625Z,69.15
2018-04-24T01:27:33.905Z,69.33
2018-04-24T01:30:08.030Z,69.25
2018-04-24T01:32:36.290Z,69.69
2018-04-24T01:35:06.327Z,69.95
2018-04-24T01:37:34.604Z,70.45
2018-04-24T01:40:06.547Z,71.04
2018-04-24T01:42:34.818Z,71.17
2018-04-24T01:45:06.684Z,71.65
2018-04-24T01:47:34.955Z,71.66
2018-04-24T01:50:07.069Z,72.02
2018-04-24T01:52:35.510Z,72.18
2018-04-24T01:55:06.737Z,73.95
2018-04-24T01:57:35.244Z,73.62
2018-04-24T02:00:05.876Z,73.73
2018-04-24T02:02:34.151Z,74.83
2018-04-24T02:05:07.751Z,74.43
2018-04-24T02:07:36.342Z,74.99
2018-04-24T02:10:06.228Z,75.74
2018-04-24T02:12:34.503Z,74.78
2018-04-24T02:15:06.554Z,74.97
2018-04-24T02:17:35.267Z,75.43
2018-04-24T02:20:06.850Z,76.05
2018-04-24T02:22:35.202Z,77.16
2018-04-24T02:25:07.248Z,76.88
2018-04-24T02:27:35.710Z,77.25
2018-04-24T02:30:06.936Z,76.54
2018-04-24T02:32:35.535Z,77.30
2018-04-24T02:35:07.499Z,77.51
2018-04-24T02:37:35.786Z,77.60
2018-04-24T02:40:07.329Z,78.30
2018-04-24T02:42:35.955Z,77.87
2018-04-24T02:45:06.077Z,77.59
2018-04-24T02:47:34.585Z,77.30
2018-04-24T02:50:08.570Z,77.53
2018-04-24T02:52:36.875Z,77.13
2018-04-24T02:55:05.974Z,77.66
2018-04-24T02:57:34.262Z,78.47
2018-04-24T03:00:06.151Z,78.15
2018-04-24T03:02:34.421Z,77.98
2018-04-24T03:05:06.092Z,77.15
2018-04-24T03:07:34.487Z,77.01
2018-04-24T03:10:05.974Z,77.60
2018-04-24T03:12:34.410Z,77.89
2018-04-24T03:15:06.123Z,78.09
2018-04-24T03:17:34.410Z,77.69
2018-04-24T03:20:06.603Z,78.14
2018-04-24T03:22:34.874Z,78.32
2018-04-24T03:25:06.779Z,78.41
2018-04-24T03:27:35.061Z,78.61
2018-04-24T03:30:06.185Z,78.22
2018-04-24T03:32:34.755Z,78.00
2018-04-24T03:35:06.066Z,77.83
2018-04-24T03:37:34.350Z,77.84
2018-04-24T03:40:06.170Z,77.46
2018-04-24T03:42:34.452Z,77.59
2018-04-24T03:45:07.474Z,77.25
2018-04-24T03:47:35.811Z,77.41
2018-04-24T03:50:07.672Z,77.04
2018-04-24T03:52:36.058Z,76.69
2018-04-24T03:55:06.171Z,76.16
2018-04-24T03:57:34.711Z,76.60
2018-04-24T04:00:08.631Z,77.26
2018-04-24T04:02:36.927Z,77.07
2018-04-24T04:05:06.259Z,77.92
2018-04-24T04:07:34.631Z,77.87
2018-04-24T04:10:06.239Z,78.36
2018-04-24T04:12:34.556Z,78.74
2018-04-24T04:15:06.645Z,78.43
2018-04-24T04:20:46.748Z,78.20
2018-04-24T04:23:26.724Z,79.04
2018-04-24T04:25:55.296Z,78.79
2018-04-24T04:28:23.575Z,78.70
2018-04-24T04:30:52.665Z,79.94
2018-04-24T04:33:20.937Z,79.40
2018-04-24T04:35:49.235Z,78.97
2018-04-24T04:38:17.495Z,79.38
2018-04-24T04:40:46.077Z,79.42
2018-04-24T04:43:14.365Z,79.31
2018-04-24T04:45:43.020Z,79.47
2018-04-24T04:48:11.476Z,79.13
2018-04-24T04:50:40.414Z,79.15
2018-04-24T04:53:09.323Z,78.80
2018-04-24T04:55:37.661Z,79.02
2018-04-24T04:58:05.929Z,78.35
2018-04-24T05:00:34.224Z,78.53
2018-04-24T05:03:02.525Z,78.86
2018-04-24T05:05:30.800Z,78.63
2018-04-24T05:07:59.426Z,78.46
2018-04-24T05:10:27.700Z,78.11
2018-04-24T05:12:55.984Z,78.43
2018-04-24T05:15:24.298Z,78.23
2018-04-24T05:17:52.591Z,78.05
2018-04-24T05:20:20.873Z,78.04
2018-04-24T05:22:49.180Z,77.87
2018-04-24T05:25:17.635Z,77.66
2018-04-24T05:27:46.126Z,77.45
2018-04-24T05:30:14.574Z,77.85
2018-04-24T05:32:42.854Z,76.63
2018-04-24T05:35:11.132Z,75.44
2018-04-24T05:37:39.422Z,73.85
2018-04-24T05:40:07.705Z,73.99
2018-04-24T05:42:36.267Z,73.62
2018-04-24T05:45:06.235Z,72.72
2018-04-24T05:47:34.739Z,72.45
2018-04-24T05:50:08.697Z,71.88
2018-04-24T05:52:38.045Z,70.95
2018-04-24T05:55:06.434Z,70.28
2018-04-24T05:57:34.793Z,71.04
2018-04-24T06:00:08.756Z,70.12
2018-04-24T06:02:37.280Z,70.51
2018-04-24T06:05:06.503Z,70.65
2018-04-24T06:07:34.823Z,70.40
2018-04-24T06:10:09.011Z,69.15
2018-04-24T06:12:37.293Z,67.91
2018-04-24T06:15:06.452Z,68.19
2018-04-24T06:17:34.672Z,68.01
2018-04-24T06:20:06.023Z,66.50
2018-04-24T06:22:34.349Z,66.94
2018-04-24T06:25:06.503Z,66.28
2018-04-24T06:27:34.814Z,66.98
2018-04-24T06:30:06.944Z,65.84
2018-04-24T06:32:35.236Z,65.57
2018-04-24T06:35:06.903Z,65.99
2018-04-24T06:37:35.183Z,65.08
2018-04-24T06:40:07.031Z,64.31
2018-04-24T06:42:35.328Z,64.03
2018-04-24T06:45:06.437Z,63.99
2018-04-24T06:47:34.875Z,63.77
2018-04-24T06:50:06.967Z,62.90
2018-04-24T06:52:35.538Z,62.96
2018-04-24T06:55:07.513Z,63.93
2018-04-24T06:57:35.778Z,62.93
2018-04-24T07:00:06.287Z,62.79
2018-04-24T07:02:34.641Z,62.13
2018-04-24T07:05:06.047Z,64.02
2018-04-24T07:07:34.329Z,63.55
2018-04-24T07:10:08.967Z,62.90
2018-04-24T07:12:37.264Z,62.26
2018-04-24T07:15:07.048Z,62.54
2018-04-24T07:17:35.338Z,62.36
2018-04-24T07:20:06.244Z,62.19
2018-04-24T07:22:34.964Z,61.18
2018-04-24T07:25:07.712Z,60.25
2018-04-24T07:27:36.020Z,60.66
2018-04-24T07:30:07.369Z,60.63
2018-04-24T07:32:35.637Z,60.90
2018-04-24T07:35:07.743Z,59.87
2018-04-24T07:37:36.208Z,59.00
2018-04-24T07:40:07.985Z,59.22
2018-04-24T07:42:36.511Z,59.23
2018-04-24T07:45:08.252Z,58.79
2018-04-24T07:47:36.667Z,56.77
2018-04-24T07:50:08.474Z,56.65
2018-04-24T07:52:36.748Z,55.65
2018-04-24T07:55:08.327Z,55.12
2018-04-24T07:57:37.354Z,56.26
2018-04-24T08:00:06.964Z,55.00
2018-04-24T08:02:35.251Z,54.99
2018-04-24T08:05:06.568Z,53.58
2018-04-24T08:07:35.357Z,54.56
2018-04-24T08:10:07.246Z,54.33
2018-04-24T08:12:36.021Z,55.90
2018-04-24T08:15:07.323Z,55.16
2018-04-24T08:17:35.649Z,56.19
2018-04-24T08:20:07.487Z,55.28
2018-04-24T08:22:39.607Z,54.24
2018-04-24T08:25:07.904Z,51.95
2018-04-24T08:27:36.419Z,51.54
2018-04-24T08:30:06.511Z,52.65
2018-04-24T08:32:34.993Z,50.75
2018-04-24T08:35:06.990Z,53.06
2018-04-24T08:37:35.425Z,54.01
2018-04-24T08:40:07.476Z,54.02
2018-04-24T08:42:35.727Z,54.43
2018-04-24T08:45:07.730Z,52.48
2018-04-24T08:47:36.167Z,53.61
2018-04-24T08:50:08.175Z,53.08
2018-04-24T08:52:36.771Z,52.23
2018-04-24T08:55:06.735Z,53.60
2018-04-24T08:57:35.178Z,53.33
2018-04-24T09:00:10.222Z,52.54
2018-04-24T09:02:38.580Z,52.16
2018-04-24T09:17:41.675Z,52.28
2018-04-24T09:20:09.979Z,53.22
2018-04-24T09:22:38.308Z,53.34
2018-04-24T09:25:06.869Z,53.48
2018-04-24T09:27:35.365Z,53.22
2018-04-24T09:30:07.079Z,53.12
2018-04-24T09:32:35.686Z,53.29
2018-04-24T09:35:07.786Z,53.29
2018-04-24T09:37:36.183Z,53.08
2018-04-24T09:40:07.430Z,54.06
2018-04-24T09:42:36.575Z,53.43
2018-04-24T09:45:09.109Z,53.40
2018-04-24T09:47:37.499Z,54.92
2018-04-24T09:50:06.499Z,55.25
2018-04-24T09:52:34.776Z,56.13
2018-04-24T09:55:07.724Z,56.37
2018-04-24T09:57:37.164Z,55.43
2018-04-24T10:00:06.789Z,55.62
2018-04-24T10:02:35.100Z,55.08
2018-04-24T10:05:07.319Z,55.30
2018-04-24T10:07:35.935Z,54.30
2018-04-24T10:10:08.034Z,55.46
2018-04-24T10:12:36.331Z,54.33
2018-04-24T10:15:06.235Z,54.54
2018-04-24T10:17:34.756Z,54.45
2018-04-24T10:20:06.727Z,54.28
2018-04-24T10:22:34.987Z,53.98
2018-04-24T10:25:06.950Z,54.57
2018-04-24T10:27:35.314Z,55.10
2018-04-24T10:30:06.919Z,53.78
2018-04-24T10:32:35.379Z,52.95
2018-04-24T10:35:07.577Z,51.66
2018-04-24T10:37:35.943Z,51.91
2018-04-24T10:40:07.840Z,50.67
2018-04-24T10:42:36.144Z,54.05
2018-04-24T10:45:07.976Z,53.70
2018-04-24T10:47:36.283Z,53.91
2018-04-24T10:50:08.425Z,53.15
2018-04-24T10:52:36.715Z,53.50
2018-04-24T10:55:06.470Z,53.13
2018-04-24T10:57:34.828Z,53.96
2018-04-24T11:00:06.140Z,54.56
2018-04-24T11:02:34.408Z,54.99
2018-04-24T11:05:05.672Z,53.26
2018-04-24T11:07:33.941Z,53.62
2018-04-24T11:10:08.660Z,52.44
2018-04-24T11:12:36.966Z,52.68
2018-04-24T11:15:06.599Z,53.26
2018-04-24T11:17:35.031Z,53.06
2018-04-24T11:20:08.963Z,52.84
2018-04-24T11:22:37.309Z,52.91
2018-04-24T11:25:07.022Z,52.97
2018-04-24T11:27:35.638Z,53.52
2018-04-24T11:30:07.076Z,55.01
2018-04-24T11:32:35.364Z,54.21
2018-04-24T11:35:06.558Z,54.15
2018-04-24T11:37:34.865Z,53.89
2018-04-24T11:40:06.164Z,53.93
2018-04-24T11:42:34.462Z,53.23
2018-04-24T11:45:05.785Z,52.99
2018-04-24T11:47:34.067Z,52.89
2018-04-24T11:50:08.748Z,52.67
2018-04-24T11:52:37.058Z,52.23
2018-04-24T11:55:08.683Z,51.83
2018-04-24T11:57:37.115Z,54.07
2018-04-24T12:00:06.926Z,54.56
2018-04-24T12:02:35.287Z,52.74
2018-04-24T12:05:06.341Z,53.16
2018-04-24T12:07:34.651Z,53.86
2018-04-24T12:10:06.797Z,51.11
2018-04-24T12:12:35.040Z,51.25
2018-04-24T12:15:06.566Z,52.88
2018-04-24T12:17:35.629Z,51.16
2018-04-24T12:20:06.911Z,52.69
2018-04-24T12:22:35.248Z,51.16
2018-04-24T12:25:07.351Z,51.21
2018-04-24T12:27:35.646Z,50.97
2018-04-24T12:30:06.542Z,51.70
2018-04-24T12:32:34.805Z,52.33
2018-04-24T12:35:10.025Z,52.37
2018-04-24T12:37:38.362Z,54.46
2018-04-24T12:40:06.764Z,52.66
2018-04-24T12:42:35.026Z,52.76
2018-04-24T12:45:07.882Z,56.59
2018-04-24T12:47:36.167Z,53.36
2018-04-24T12:50:07.444Z,54.13
2018-04-24T12:52:35.716Z,53.79
2018-04-24T12:55:07.877Z,56.47
2018-04-24T12:57:36.306Z,55.37
2018-04-24T13:00:08.152Z,55.76
2018-04-24T13:02:36.422Z,53.76
2018-04-24T13:05:06.444Z,53.09
2018-04-24T13:07:34.928Z,53.87
2018-04-24T13:10:06.402Z,52.33
2018-04-24T13:12:34.678Z,53.69
2018-04-24T13:15:08.646Z,52.49
2018-04-24T13:17:36.973Z,52.25
2018-04-24T13:20:06.767Z,53.26
2018-04-24T13:22:35.057Z,53.64
2018-04-24T13:25:06.421Z,54.33
2018-04-24T13:27:34.718Z,55.02
2018-04-24T13:30:06.333Z,54.51
2018-04-24T13:32:34.631Z,56.73
2018-04-24T13:35:07.911Z,56.53
2018-04-24T13:37:36.164Z,56.81
2018-04-24T13:40:07.503Z,55.75
2018-04-24T13:42:35.821Z,55.48
2018-04-24T13:45:07.977Z,54.10
2018-04-24T13:47:36.555Z,54.01
2018-04-24T13:50:08.176Z,54.49
2018-04-24T13:52:36.471Z,57.76
2018-04-24T13:55:08.692Z,57.86
2018-04-24T13:57:37.072Z,54.94
2018-04-24T14:00:06.788Z,54.39
2018-04-24T14:02:35.085Z,55.95
2018-04-24T14:05:06.448Z,55.99
2018-04-24T14:07:34.754Z,57.74
2018-04-24T14:10:06.880Z,56.21
2018-04-24T14:12:35.399Z,58.21
2018-04-24T14:15:07.346Z,58.90
2018-04-24T14:17:36.583Z,57.04
2018-04-24T14:20:05.987Z,59.05
2018-04-24T14:22:34.288Z,57.15
2018-04-24T14:25:05.646Z,56.63
2018-04-24T14:27:34.187Z,58.38
2018-04-24T14:30:05.915Z,56.48
2018-04-24T14:32:34.215Z,58.84
2018-04-24T14:35:08.228Z,59.65
2018-04-24T14:37:36.516Z,61.07
2018-04-24T14:40:05.731Z,62.02
2018-04-24T14:42:34.020Z,61.66
2018-04-24T14:45:05.739Z,62.38
2018-04-24T14:47:34.052Z,60.74
2018-04-24T14:50:05.937Z,59.28
2018-04-24T14:52:34.219Z,61.86
2018-04-24T14:55:05.540Z,62.66
2018-04-24T14:57:33.812Z,62.46
2018-04-24T15:00:07.776Z,62.43
2018-04-24T15:02:36.082Z,60.21
2018-04-24T15:05:05.632Z,59.68
2018-04-24T15:07:34.212Z,60.40
2018-04-24T15:10:05.956Z,60.37
2018-04-24T15:12:34.501Z,62.08
2018-04-24T15:15:06.374Z,60.19
2018-04-24T15:17:34.647Z,60.67
2018-04-24T15:20:06.466Z,60.98
2018-04-24T15:22:34.740Z,60.86
2018-04-24T15:25:06.846Z,61.73
2018-04-24T15:27:35.133Z,62.27
2018-04-24T15:30:07.052Z,62.67
2018-04-24T15:32:35.327Z,60.91
2018-04-24T15:35:06.653Z,60.11
2018-04-24T15:37:34.956Z,59.87
2018-04-24T15:40:10.301Z,60.59
2018-04-24T15:42:38.583Z,61.49
2018-04-24T15:45:06.955Z,61.77
2018-04-24T15:47:35.223Z,59.87
2018-04-24T15:50:07.219Z,59.86
2018-04-24T15:52:35.484Z,60.21
2018-04-24T15:55:06.735Z,59.20
2018-04-24T15:57:35.015Z,59.63
2018-04-24T16:00:07.060Z,59.13
2018-04-24T16:02:35.345Z,58.39
2018-04-24T16:05:07.200Z,59.98
2018-04-24T16:07:35.485Z,58.40
2018-04-24T16:10:05.626Z,57.61
2018-04-24T16:12:33.949Z,57.95
2018-04-24T16:15:05.839Z,60.10
2018-04-24T16:17:34.279Z,61.20
2018-04-24T16:20:05.827Z,61.01
2018-04-24T16:22:34.141Z,61.66
2018-04-24T16:25:05.903Z,61.21
2018-04-24T16:27:34.198Z,60.10
2018-04-24T16:30:08.389Z,60.42
2018-04-24T16:32:36.551Z,60.40
2018-04-24T16:35:05.894Z,59.50
2018-04-24T16:37:34.163Z,61.50
2018-04-24T16:40:05.541Z,61.51
2018-04-24T16:42:33.885Z,60.81
2018-04-24T16:45:08.253Z,61.31
2018-04-24T16:47:36.547Z,60.16
2018-04-24T16:50:06.155Z,61.09
2018-04-24T16:52:34.449Z,61.13
2018-04-24T16:55:06.487Z,62.08
2018-04-24T16:57:34.777Z,61.73
2018-04-24T17:00:05.976Z,60.68
2018-04-24T17:02:34.274Z,60.13
2018-04-24T17:05:05.681Z,59.95
2018-04-24T17:07:34.027Z,62.32
2018-04-24T17:10:06.296Z,61.93
2018-04-24T17:12:34.604Z,62.10
2018-04-24T17:15:05.855Z,61.19
2018-04-24T17:17:34.130Z,62.28
2018-04-24T17:20:06.245Z,62.57
2018-04-24T17:22:34.513Z,62.78
2018-04-24T17:25:05.883Z,62.30
2018-04-24T17:27:34.223Z,61.78
2018-04-24T17:30:06.315Z,62.18
2018-04-24T17:32:34.587Z,62.77
2018-04-24T17:35:06.499Z,62.66
2018-04-24T17:37:34.803Z,63.39
2018-04-24T17:40:06.056Z,64.40
2018-04-24T17:42:34.444Z,64.32
2018-04-24T17:45:06.396Z,64.19
2018-04-24T17:47:34.699Z,63.18
2018-04-24T17:50:06.474Z,62.99
2018-04-24T17:52:34.974Z,64.17
2018-04-24T17:55:08.117Z,64.02
2018-04-24T17:57:36.395Z,63.36
2018-04-24T18:00:06.432Z,63.68
2018-04-24T18:02:34.856Z,63.93
2018-04-24T18:05:06.879Z,63.98
2018-04-24T18:07:35.166Z,63.26
2018-04-24T18:10:07.307Z,63.14
2018-04-24T18:12:35.623Z,63.90
2018-04-24T18:15:07.637Z,64.68
2018-04-24T18:17:35.919Z,65.45
2018-04-24T18:20:06.143Z,64.63
2018-04-24T18:22:34.426Z,64.85
2018-04-24T18:25:05.964Z,64.63
2018-04-24T18:27:34.255Z,65.42
2018-04-24T18:30:05.603Z,65.45
2018-04-24T18:32:33.932Z,65.42
2018-04-24T18:35:08.909Z,66.11
2018-04-24T18:37:37.278Z,66.98
2018-04-24T18:40:05.868Z,66.66
2018-04-24T18:42:34.159Z,67.45
2018-04-24T18:45:06.008Z,67.02
2018-04-24T18:47:34.316Z,68.29
2018-04-24T18:50:06.158Z,67.50
2018-04-24T18:52:34.821Z,67.45
2018-04-24T18:55:06.830Z,67.60
2018-04-24T18:57:35.736Z,69.53
2018-04-24T19:00:05.854Z,69.20
2018-04-24T19:02:34.135Z,68.82
2018-04-24T19:05:06.059Z,69.33
2018-04-24T19:07:36.366Z,70.14
2018-04-24T19:10:06.571Z,70.06
2018-04-24T19:12:34.833Z,69.33
2018-04-24T19:15:07.410Z,69.31
2018-04-24T19:17:35.684Z,69.90
2018-04-24T19:20:07.183Z,69.66
2018-04-24T19:22:35.486Z,69.85
2018-04-24T19:25:13.044Z,70.60
2018-04-24T19:27:41.311Z,70.90
2018-04-24T19:30:09.621Z,70.64
2018-04-24T19:32:37.894Z,70.34
2018-04-24T19:35:06.179Z,70.93
2018-04-24T19:37:34.465Z,71.35
2018-04-24T19:40:13.866Z,70.88
2018-04-24T19:42:42.146Z,71.04
2018-04-24T19:45:10.484Z,71.89
2018-04-24T19:47:38.756Z,72.61
2018-04-24T19:50:12.441Z,72.82
2018-04-24T19:52:40.711Z,72.59
2018-04-24T19:55:27.511Z,72.79
2018-04-24T19:57:55.928Z,72.57
2018-04-24T20:00:24.325Z,72.83
2018-04-24T20:02:52.598Z,72.43
2018-04-24T20:05:20.924Z,72.04
2018-04-24T20:07:49.255Z,72.42
2018-04-24T20:10:17.725Z,72.87
2018-04-24T20:12:46.036Z,72.70
2018-04-24T20:15:14.308Z,73.10
2018-04-24T20:17:42.631Z,73.33
2018-04-24T20:20:11.043Z,73.09
2018-04-24T20:22:39.312Z,73.03
2018-04-24T20:25:07.657Z,73.47
2018-04-24T20:27:35.971Z,73.65
2018-04-24T20:30:06.027Z,73.66
2018-04-24T20:32:34.577Z,73.96
2018-04-24T20:35:06.625Z,73.28
2018-04-24T20:37:34.926Z,74.70
2018-04-24T20:40:06.938Z,74.33
2018-04-24T20:42:35.237Z,73.84
2018-04-24T20:45:07.159Z,74.12
2018-04-24T20:47:35.588Z,73.86
2018-04-24T20:50:07.433Z,74.57
2018-04-24T20:52:35.742Z,74.52
2018-04-24T20:55:07.044Z,74.30
2018-04-24T20:57:35.572Z,74.67
2018-04-24T21:00:07.324Z,74.21
2018-04-24T21:02:35.607Z,74.37
2018-04-24T21:05:07.716Z,74.19
2018-04-24T21:07:36.205Z,74.49
2018-04-24T21:10:05.977Z,74.23
2018-04-24T21:12:34.751Z,74.34
2018-04-24T21:15:06.649Z,74.79
2018-04-24T21:17:35.004Z,74.79
2018-04-24T21:20:06.895Z,74.77
2018-04-24T21:22:35.209Z,75.09
2018-04-24T21:25:06.242Z,75.19
2018-04-24T21:27:34.514Z,75.37
2018-04-24T21:30:08.659Z,75.35
2018-04-24T21:32:37.042Z,75.43
2018-04-24T21:35:06.849Z,75.61
2018-04-24T21:37:35.325Z,76.48
2018-04-24T21:40:07.365Z,77.25
2018-04-24T21:42:35.664Z,78.06
2018-04-24T21:45:08.196Z,77.34
2018-04-24T21:47:36.506Z,77.25
2018-04-24T21:50:06.322Z,77.30
2018-04-24T21:52:34.614Z,77.57
2018-04-24T21:55:08.639Z,77.27
2018-04-24T21:57:36.920Z,77.10
2018-04-24T22:00:06.320Z,77.60
2018-04-24T22:02:34.591Z,78.00
2018-04-24T22:05:08.547Z,77.64
2018-04-24T22:07:38.451Z,74.93
2018-04-24T22:10:07.054Z,76.24
2018-04-24T22:12:35.330Z,73.84
2018-04-24T22:15:06.015Z,73.34
2018-04-24T22:17:34.519Z,71.38
2018-04-24T22:20:09.082Z,70.13
2018-04-24T22:22:37.321Z,69.20
2018-04-24T22:25:06.254Z,68.48
2018-04-24T22:27:34.535Z,68.85
2018-04-24T22:30:06.797Z,68.64
2018-04-24T22:32:35.367Z,68.60
2018-04-24T22:35:07.000Z,68.22
2018-04-24T22:37:35.588Z,68.07
2018-04-24T22:40:07.502Z,67.49
2018-04-24T22:42:35.790Z,67.37
2018-04-24T22:45:07.714Z,67.69
2018-04-24T22:47:36.013Z,67.15
2018-04-24T22:50:06.007Z,67.11
2018-04-24T22:52:34.291Z,66.82
2018-04-24T22:55:06.293Z,66.37
2018-04-24T22:57:34.543Z,66.46
2018-04-24T23:00:08.162Z,66.37
2018-04-24T23:02:36.420Z,65.98
2018-04-24T23:05:06.214Z,66.23
2018-04-24T23:07:34.507Z,66.01
2018-04-24T23:10:06.244Z,65.79
2018-04-24T23:12:46.244Z,65.31
2018-04-24T23:15:26.412Z,65.63
2018-04-24T23:18:06.580Z,65.10
2018-04-24T23:20:34.611Z,64.51
2018-04-24T23:23:02.954Z,64.33
2018-04-24T23:25:31.243Z,63.80
2018-04-24T23:27:59.523Z,64.02
2018-04-24T23:30:27.814Z,64.39
2018-04-24T23:32:56.262Z,63.81
2018-04-24T23:35:24.542Z,63.71
2018-04-24T23:37:52.819Z,63.72
2018-04-24T23:40:21.106Z,63.75
2018-04-24T23:42:49.391Z,63.80
2018-04-24T23:45:18.188Z,63.76
2018-04-24T23:47:46.606Z,63.69
2018-04-24T23:50:14.932Z,63.75
2018-04-24T23:52:43.163Z,63.89
2018-04-24T23:55:11.451Z,64.19
2018-04-24T23:57:39.741Z,64.08
